createdAt,value
2019-03-12T00:00:53.605Z,0
2019-03-12T00:02:03.526Z,0
2019-03-12T00:03:13.436Z,0
2019-03-12T00:04:23.604Z,0
2019-03-12T00:05:33.522Z,0
2019-03-12T00:06:43.447Z,0
2019-03-12T00:07:53.358Z,0
2019-03-12T00:09:03.278Z,0
2019-03-12T00:10:13.238Z,0
2019-03-12T00:11:23.150Z,0
2019-03-12T00:12:33.060Z,0
2019-03-12T00:13:42.724Z,0
2019-03-12T00:14:52.636Z,0
2019-03-12T00:16:02.591Z,0
2019-03-12T00:17:12.517Z,0
2019-03-12T00:18:22.427Z,0
2019-03-12T00:19:35.732Z,0
2019-03-12T00:20:45.660Z,0
2019-03-12T00:21:55.665Z,0
2019-03-12T00:23:05.329Z,0
2019-03-12T00:24:15.279Z,0
2019-03-12T00:25:25.185Z,0
2019-03-12T00:26:35.096Z,0
2019-03-12T00:27:45.056Z,0
2019-03-12T00:28:54.966Z,0
2019-03-12T00:30:19.715Z,0
2019-03-12T00:31:29.621Z,0
2019-03-12T00:32:39.532Z,0
2019-03-12T00:33:49.461Z,0
2019-03-12T00:34:59.371Z,0
2019-03-12T00:36:09.294Z,0
2019-03-12T00:37:19.204Z,0
2019-03-12T00:38:29.165Z,0
2019-03-12T00:39:38.822Z,0
2019-03-12T00:40:48.730Z,0
2019-03-12T00:41:58.643Z,0
2019-03-12T00:43:08.556Z,0
2019-03-12T00:44:18.515Z,0
2019-03-12T00:45:28.478Z,0
2019-03-12T00:46:38.410Z,0
2019-03-12T00:47:48.326Z,0
2019-03-12T00:48:58.248Z,0
2019-03-12T00:50:08.261Z,0
2019-03-12T00:51:18.178Z,0
2019-03-12T00:52:28.089Z,0
2019-03-12T00:53:37.997Z,0
2019-03-12T00:54:47.913Z,0
2019-03-12T00:55:57.932Z,0
2019-03-12T00:57:07.850Z,0
2019-03-12T00:58:17.506Z,0
2019-03-12T00:59:27.425Z,0
2019-03-12T01:00:37.335Z,0
2019-03-12T01:01:47.310Z,0
2019-03-12T01:02:57.328Z,0
2019-03-12T01:04:07.249Z,0
2019-03-12T01:05:17.174Z,0
2019-03-12T01:06:27.089Z,0
2019-03-12T01:07:37.047Z,0
2019-03-12T01:08:46.995Z,0
2019-03-12T01:09:56.923Z,0
2019-03-12T01:11:06.832Z,0
2019-03-12T01:12:16.739Z,0
2019-03-12T01:13:26.700Z,0
2019-03-12T01:14:36.616Z,0
2019-03-12T01:15:46.523Z,0
2019-03-12T01:16:56.437Z,0
2019-03-12T01:18:06.375Z,0
2019-03-12T01:19:16.338Z,0
2019-03-12T01:20:26.264Z,0
2019-03-12T01:21:36.193Z,0
2019-03-12T01:22:46.109Z,0
2019-03-12T01:23:56.017Z,0
2019-03-12T01:25:06.032Z,0
2019-03-12T01:26:15.940Z,0
2019-03-12T01:27:25.849Z,0
2019-03-12T01:28:35.847Z,0
2019-03-12T01:29:45.757Z,0
2019-03-12T01:30:55.762Z,0
2019-03-12T01:32:05.419Z,0
2019-03-12T01:33:15.333Z,0
2019-03-12T01:34:25.247Z,0
2019-03-12T01:35:35.161Z,0
2019-03-12T01:36:45.175Z,0
2019-03-12T01:37:54.834Z,0
2019-03-12T01:39:04.535Z,0
2019-03-12T01:40:14.443Z,0
2019-03-12T01:41:24.360Z,0
2019-03-12T01:42:34.066Z,0
2019-03-12T01:43:43.982Z,0
2019-03-12T01:44:53.896Z,0
2019-03-12T01:46:03.823Z,0
2019-03-12T01:47:13.734Z,0
2019-03-12T01:48:23.745Z,0
2019-03-12T01:49:33.654Z,0
2019-03-12T01:50:43.604Z,0
2019-03-12T01:51:53.513Z,0
2019-03-12T01:53:03.427Z,0
2019-03-12T01:54:13.457Z,0
2019-03-12T01:55:23.396Z,0
2019-03-12T01:56:33.314Z,0
2019-03-12T01:57:43.221Z,0
2019-03-12T01:58:53.131Z,0
2019-03-12T02:00:03.196Z,0
2019-03-12T02:01:13.124Z,0
2019-03-12T02:02:23.033Z,0
2019-03-12T02:03:32.941Z,0
2019-03-12T02:04:42.859Z,0
2019-03-12T02:05:52.885Z,0
2019-03-12T02:07:04.713Z,0
2019-03-12T02:08:14.633Z,0
2019-03-12T02:09:24.553Z,0
2019-03-12T02:10:34.479Z,0
2019-03-12T02:11:44.447Z,0
2019-03-12T02:12:54.098Z,0
2019-03-12T02:14:04.007Z,0
2019-03-12T02:15:13.917Z,0
2019-03-12T02:16:23.830Z,0
2019-03-12T02:17:33.849Z,0
2019-03-12T02:18:43.782Z,0
2019-03-12T02:19:53.692Z,0
2019-03-12T02:21:03.601Z,0
2019-03-12T02:22:13.516Z,0
2019-03-12T02:23:23.575Z,0
2019-03-12T02:24:36.655Z,0
2019-03-12T02:25:59.552Z,0
2019-03-12T02:27:09.459Z,0
2019-03-12T02:28:19.375Z,0
2019-03-12T02:29:29.290Z,0
2019-03-12T02:30:39.215Z,0
2019-03-12T02:31:49.149Z,0
2019-03-12T02:32:59.097Z,0
2019-03-12T02:34:08.780Z,0
2019-03-12T02:35:18.723Z,0
2019-03-12T02:36:28.402Z,0
2019-03-12T02:37:38.415Z,0
2019-03-12T02:38:48.344Z,0
2019-03-12T02:39:58.319Z,0
2019-03-12T02:41:08.342Z,0
2019-03-12T02:42:20.042Z,0
2019-03-12T02:43:29.968Z,0
2019-03-12T02:44:39.915Z,0
2019-03-12T02:45:49.939Z,0
2019-03-12T02:46:59.866Z,0
2019-03-12T02:48:09.813Z,0
2019-03-12T02:49:19.739Z,0
2019-03-12T02:50:29.674Z,0
2019-03-12T02:51:39.405Z,0
2019-03-12T02:52:49.334Z,0
2019-03-12T02:53:59.255Z,0
2019-03-12T02:55:09.299Z,0
2019-03-12T02:56:19.223Z,0
2019-03-12T02:57:29.290Z,0
2019-03-12T02:58:39.219Z,0
2019-03-12T02:59:49.143Z,0
2019-03-12T03:00:59.087Z,0
2019-03-12T03:02:09.030Z,0
2019-03-12T03:03:18.896Z,0
2019-03-12T03:04:28.819Z,0
2019-03-12T03:05:38.732Z,0
2019-03-12T03:06:48.659Z,0
2019-03-12T03:07:58.709Z,0
2019-03-12T03:09:08.712Z,0
2019-03-12T03:10:18.649Z,0
2019-03-12T03:11:28.582Z,0
2019-03-12T03:12:38.512Z,0
2019-03-12T03:13:48.195Z,0
2019-03-12T03:14:58.213Z,0
2019-03-12T03:16:08.256Z,0
2019-03-12T03:17:17.927Z,0
2019-03-12T03:18:27.844Z,0
2019-03-12T03:19:37.814Z,0
2019-03-12T03:20:47.861Z,0
2019-03-12T03:21:57.777Z,0
2019-03-12T03:23:07.731Z,0
2019-03-12T03:24:17.660Z,0
2019-03-12T03:25:27.334Z,0
2019-03-12T03:26:37.363Z,0
2019-03-12T03:27:46.812Z,0
2019-03-12T03:28:56.750Z,0
2019-03-12T03:30:06.716Z,0
2019-03-12T03:31:16.687Z,0
2019-03-12T03:32:26.851Z,0
2019-03-12T03:33:36.815Z,0
2019-03-12T03:34:46.760Z,0
2019-03-12T03:35:56.698Z,0
2019-03-12T03:37:06.696Z,0
2019-03-12T03:38:16.834Z,0
2019-03-12T03:39:26.759Z,0
2019-03-12T03:40:36.682Z,0
2019-03-12T03:41:46.659Z,0
2019-03-12T03:42:56.612Z,0
2019-03-12T03:44:06.657Z,0
2019-03-12T03:45:16.584Z,0
2019-03-12T03:46:26.535Z,0
2019-03-12T03:47:36.551Z,0
2019-03-12T03:48:46.240Z,0
2019-03-12T03:49:56.278Z,0
2019-03-12T03:51:06.001Z,0
2019-03-12T03:52:15.949Z,0
2019-03-12T03:53:25.953Z,0
2019-03-12T03:54:35.865Z,0
2019-03-12T03:55:45.832Z,0
2019-03-12T03:56:55.750Z,0
2019-03-12T03:58:05.675Z,0
2019-03-12T03:59:15.628Z,0
2019-03-12T04:00:25.558Z,0
2019-03-12T04:01:35.623Z,0
2019-03-12T04:02:45.722Z,0
2019-03-12T04:03:55.666Z,0
2019-03-12T04:05:05.632Z,0
2019-03-12T04:06:15.570Z,0
2019-03-12T04:07:25.582Z,0
2019-03-12T04:08:35.564Z,0
2019-03-12T04:09:45.496Z,0
2019-03-12T04:10:55.487Z,0
2019-03-12T04:12:05.425Z,0
2019-03-12T04:13:15.405Z,0
2019-03-12T04:14:25.355Z,0
2019-03-12T04:15:35.277Z,0
2019-03-12T04:16:45.317Z,0
2019-03-12T04:17:55.279Z,0
2019-03-12T04:19:05.311Z,0
2019-03-12T04:20:15.256Z,0
2019-03-12T04:21:25.236Z,0
2019-03-12T04:22:35.162Z,0
2019-03-12T04:23:45.100Z,0
2019-03-12T04:24:55.118Z,0
2019-03-12T04:26:05.078Z,0
2019-03-12T04:27:15.010Z,0
2019-03-12T04:28:25.216Z,0
2019-03-12T04:29:35.129Z,0
2019-03-12T04:30:45.161Z,0
2019-03-12T04:31:55.102Z,0
2019-03-12T04:33:05.011Z,0
2019-03-12T04:34:14.934Z,0
2019-03-12T04:35:24.871Z,0
2019-03-12T04:36:34.829Z,0
2019-03-12T04:37:44.755Z,0
2019-03-12T04:38:54.763Z,0
2019-03-12T04:40:04.682Z,0
2019-03-12T04:41:14.600Z,0
2019-03-12T04:42:24.393Z,0
2019-03-12T04:43:34.302Z,0
2019-03-12T04:44:44.210Z,0
2019-03-12T04:45:54.115Z,0
2019-03-12T04:47:04.027Z,0
2019-03-12T04:48:13.984Z,0
2019-03-12T04:49:23.898Z,0
2019-03-12T04:50:33.882Z,0
2019-03-12T04:51:43.803Z,0
2019-03-12T04:52:53.793Z,0
2019-03-12T04:54:03.773Z,0
2019-03-12T04:55:13.682Z,0
2019-03-12T04:56:23.606Z,0
2019-03-12T04:57:33.526Z,0
2019-03-12T04:58:43.436Z,0
2019-03-12T04:59:53.447Z,0
2019-03-12T05:01:03.384Z,0
2019-03-12T05:02:13.307Z,0
2019-03-12T05:03:23.217Z,0
2019-03-12T05:04:33.128Z,4
2019-03-12T05:05:43.134Z,0
2019-03-12T05:06:53.043Z,0
2019-03-12T05:08:02.965Z,4
2019-03-12T05:09:12.878Z,0
2019-03-12T05:10:22.538Z,4
2019-03-12T05:11:32.508Z,4
2019-03-12T05:12:42.418Z,4
2019-03-12T05:13:52.333Z,4
2019-03-12T05:15:02.242Z,8
2019-03-12T05:16:12.152Z,8
2019-03-12T05:17:22.109Z,8
2019-03-12T05:18:31.770Z,12
2019-03-12T05:19:41.678Z,16
2019-03-12T05:20:51.589Z,16
2019-03-12T05:22:01.508Z,20
2019-03-12T05:23:11.541Z,24
2019-03-12T05:24:21.465Z,28
2019-03-12T05:25:31.369Z,32
2019-03-12T05:26:41.281Z,36
2019-03-12T05:27:51.193Z,44
2019-03-12T05:29:01.157Z,56
2019-03-12T05:30:11.067Z,60
2019-03-12T05:31:20.731Z,72
2019-03-12T05:32:30.650Z,88
2019-03-12T05:33:40.582Z,100
2019-03-12T05:34:50.545Z,112
2019-03-12T05:36:00.480Z,128
2019-03-12T05:37:10.394Z,140
2019-03-12T05:38:20.070Z,160
2019-03-12T05:39:29.984Z,176
2019-03-12T05:40:39.942Z,196
2019-03-12T05:41:49.608Z,216
2019-03-12T05:42:59.523Z,240
2019-03-12T05:44:09.177Z,264
2019-03-12T05:45:19.093Z,288
2019-03-12T05:46:29.106Z,316
2019-03-12T05:47:39.017Z,344
2019-03-12T05:48:48.928Z,368
2019-03-12T05:49:58.841Z,396
2019-03-12T05:51:08.745Z,424
2019-03-12T05:52:18.705Z,456
2019-03-12T05:53:28.610Z,488
2019-03-12T05:54:38.518Z,524
2019-03-12T05:55:48.433Z,564
2019-03-12T05:56:58.383Z,608
2019-03-12T05:58:08.391Z,648
2019-03-12T05:59:18.297Z,700
2019-03-12T06:00:28.206Z,756
2019-03-12T06:01:38.112Z,812
2019-03-12T06:02:48.018Z,876
2019-03-12T06:03:57.988Z,940
2019-03-12T06:05:07.957Z,1008
2019-03-12T06:06:17.872Z,1064
2019-03-12T06:07:27.902Z,1116
2019-03-12T06:08:37.823Z,1160
2019-03-12T06:09:47.829Z,1204
2019-03-12T06:10:57.736Z,1248
2019-03-12T06:12:07.658Z,1288
2019-03-12T06:13:17.566Z,1328
2019-03-12T06:14:27.229Z,1364
2019-03-12T06:15:37.232Z,1404
2019-03-12T06:16:47.183Z,1440
2019-03-12T06:17:56.856Z,1468
2019-03-12T06:19:06.768Z,1500
2019-03-12T06:20:16.694Z,1548
2019-03-12T06:21:26.709Z,1580
2019-03-12T06:22:36.626Z,1636
2019-03-12T06:23:46.551Z,1672
2019-03-12T06:24:56.215Z,1728
2019-03-12T06:26:06.243Z,1808
2019-03-12T06:27:18.164Z,1904
2019-03-12T06:28:31.022Z,2004
2019-03-12T06:29:41.183Z,2116
2019-03-12T06:30:51.102Z,2224
2019-03-12T06:32:01.014Z,2320
2019-03-12T06:33:11.029Z,2400
2019-03-12T06:34:20.937Z,2448
2019-03-12T06:35:30.844Z,2492
2019-03-12T06:36:40.804Z,2504
2019-03-12T06:37:50.713Z,2524
2019-03-12T06:39:00.677Z,2564
2019-03-12T06:40:10.689Z,2628
2019-03-12T06:41:20.597Z,2736
2019-03-12T06:42:30.511Z,2892
2019-03-12T06:43:40.426Z,3092
2019-03-12T06:44:50.489Z,3296
2019-03-12T06:46:00.412Z,3452
2019-03-12T06:47:10.357Z,3548
2019-03-12T06:48:20.271Z,3612
2019-03-12T06:49:30.187Z,3676
2019-03-12T06:50:40.204Z,3792
2019-03-12T06:51:50.164Z,3868
2019-03-12T06:53:00.083Z,3984
2019-03-12T06:54:09.991Z,4048
2019-03-12T06:55:19.927Z,4140
2019-03-12T06:56:29.939Z,4144
2019-03-12T06:57:39.849Z,4168
2019-03-12T06:58:49.768Z,4124
2019-03-12T06:59:59.678Z,4152
2019-03-12T07:01:12.901Z,4228
2019-03-12T07:02:22.812Z,4264
2019-03-12T07:03:32.725Z,4320
2019-03-12T07:04:42.638Z,4424
2019-03-12T07:05:52.304Z,4692
2019-03-12T07:07:11.300Z,4772
2019-03-12T07:08:24.808Z,5068
2019-03-12T07:09:34.726Z,5172
2019-03-12T07:10:44.635Z,5352
2019-03-12T07:11:54.558Z,5568
2019-03-12T07:13:04.472Z,5688
2019-03-12T07:14:14.495Z,5520
2019-03-12T07:15:24.403Z,5492
2019-03-12T07:16:34.310Z,5516
2019-03-12T07:17:45.633Z,5508
2019-03-12T07:18:55.531Z,5552
2019-03-12T07:20:05.664Z,5648
2019-03-12T07:21:15.598Z,5712
2019-03-12T07:22:25.534Z,5836
2019-03-12T07:23:35.448Z,5868
2019-03-12T07:24:45.361Z,5872
2019-03-12T07:25:58.203Z,5944
2019-03-12T07:27:08.139Z,5908
2019-03-12T07:28:18.060Z,5872
2019-03-12T07:29:27.718Z,5860
2019-03-12T07:30:37.395Z,5968
2019-03-12T07:31:47.381Z,6176
2019-03-12T07:32:58.819Z,6360
2019-03-12T07:34:08.732Z,6512
2019-03-12T07:35:18.397Z,6660
2019-03-12T07:36:30.442Z,6792
2019-03-12T07:37:40.455Z,6684
2019-03-12T07:38:50.377Z,6660
2019-03-12T07:40:00.461Z,6664
2019-03-12T07:41:22.704Z,6796
2019-03-12T07:42:40.338Z,7148
2019-03-12T07:43:50.261Z,7492
2019-03-12T07:45:00.280Z,7772
2019-03-12T07:46:10.208Z,8012
2019-03-12T07:47:20.133Z,8168
2019-03-12T07:48:42.775Z,8352
2019-03-12T07:49:52.692Z,8460
2019-03-12T07:51:02.603Z,8588
2019-03-12T07:52:15.801Z,8784
2019-03-12T07:53:25.749Z,8988
2019-03-12T07:54:35.706Z,9212
2019-03-12T07:55:45.636Z,9356
2019-03-12T07:56:55.547Z,9328
2019-03-12T07:58:05.462Z,9344
2019-03-12T07:59:16.373Z,9376
2019-03-12T08:00:26.402Z,9444
2019-03-12T08:01:36.323Z,9480
2019-03-12T08:02:46.260Z,9484
2019-03-12T08:03:58.915Z,9480
2019-03-12T08:05:09.198Z,9416
2019-03-12T08:06:19.222Z,9280
2019-03-12T08:07:29.154Z,9172
2019-03-12T08:08:38.815Z,9052
2019-03-12T08:09:48.728Z,9016
2019-03-12T08:10:58.638Z,9024
2019-03-12T08:12:08.599Z,9100
2019-03-12T08:13:18.514Z,9344
2019-03-12T08:14:31.784Z,9708
2019-03-12T08:15:41.712Z,9916
2019-03-12T08:16:51.631Z,10044
2019-03-12T08:18:01.682Z,10132
2019-03-12T08:19:11.594Z,10224
2019-03-12T08:20:21.515Z,10116
2019-03-12T08:21:31.451Z,9848
2019-03-12T08:22:41.365Z,9596
2019-03-12T08:23:51.330Z,9512
2019-03-12T08:25:01.247Z,9492
2019-03-12T08:26:11.176Z,9608
2019-03-12T08:27:21.103Z,9740
2019-03-12T08:28:33.769Z,9704
2019-03-12T08:29:43.804Z,9724
2019-03-12T08:30:53.717Z,9640
2019-03-12T08:32:03.627Z,9420
2019-03-12T08:33:13.584Z,9220
2019-03-12T08:34:23.497Z,9196
2019-03-12T08:35:33.505Z,9176
2019-03-12T08:36:43.418Z,9144
2019-03-12T08:37:53.328Z,9116
2019-03-12T08:39:03.244Z,8916
2019-03-12T08:40:13.171Z,8644
2019-03-12T08:41:23.082Z,8428
2019-03-12T08:42:32.993Z,8404
2019-03-12T08:43:42.908Z,8572
2019-03-12T08:44:52.836Z,8936
2019-03-12T08:46:02.771Z,9512
2019-03-12T08:47:12.590Z,10008
2019-03-12T08:48:22.507Z,10476
2019-03-12T08:49:34.823Z,10808
2019-03-12T08:50:44.866Z,10956
2019-03-12T08:51:54.783Z,10980
2019-03-12T08:53:04.813Z,10824
2019-03-12T08:54:14.725Z,10660
2019-03-12T08:55:24.647Z,10468
2019-03-12T08:56:37.622Z,10448
2019-03-12T08:57:47.538Z,10508
2019-03-12T08:58:57.504Z,10704
2019-03-12T09:00:07.599Z,10616
2019-03-12T09:01:17.513Z,10480
2019-03-12T09:02:27.424Z,10576
2019-03-12T09:03:37.346Z,10792
2019-03-12T09:04:47.412Z,11224
2019-03-12T09:05:57.346Z,11684
2019-03-12T09:07:10.045Z,11996
2019-03-12T09:08:19.960Z,12048
2019-03-12T09:09:29.892Z,12368
2019-03-12T09:10:39.823Z,12588
2019-03-12T09:11:49.743Z,12540
2019-03-12T09:12:59.652Z,12508
2019-03-12T09:14:09.594Z,12368
2019-03-12T09:15:19.513Z,11988
2019-03-12T09:16:29.524Z,11552
2019-03-12T09:17:39.460Z,11112
2019-03-12T09:18:49.375Z,11004
2019-03-12T09:19:59.288Z,11128
2019-03-12T09:21:09.234Z,11296
2019-03-12T09:22:19.244Z,11424
2019-03-12T09:23:29.164Z,11704
2019-03-12T09:24:39.075Z,11960
2019-03-12T09:25:48.991Z,12120
2019-03-12T09:26:58.905Z,12240
2019-03-12T09:28:08.915Z,12148
2019-03-12T09:29:18.853Z,12024
2019-03-12T09:30:28.769Z,11740
2019-03-12T09:31:38.685Z,11496
2019-03-12T09:32:48.613Z,11360
2019-03-12T09:33:58.398Z,11180
2019-03-12T09:35:08.322Z,11272
2019-03-12T09:36:18.241Z,11508
2019-03-12T09:37:28.158Z,11660
2019-03-12T09:38:38.087Z,11752
2019-03-12T09:39:48.183Z,11872
2019-03-12T09:40:58.110Z,12080
2019-03-12T09:42:08.026Z,12248
2019-03-12T09:43:17.941Z,12296
2019-03-12T09:44:27.855Z,12464
2019-03-12T09:45:37.858Z,12484
2019-03-12T09:46:47.529Z,12488
2019-03-12T09:47:57.438Z,12496
2019-03-12T09:49:07.100Z,12368
2019-03-12T09:50:17.014Z,12264
2019-03-12T09:51:26.974Z,12332
2019-03-12T09:52:36.908Z,12368
2019-03-12T09:53:46.831Z,12276
2019-03-12T09:54:56.754Z,12220
2019-03-12T09:56:06.697Z,12352
2019-03-12T09:57:16.712Z,12508
2019-03-12T09:58:26.624Z,12512
2019-03-12T09:59:36.541Z,12464
2019-03-12T10:00:46.463Z,12484
2019-03-12T10:01:59.319Z,12560
2019-03-12T10:03:09.589Z,12612
2019-03-12T10:04:19.996Z,12696
2019-03-12T10:05:30.119Z,12640
2019-03-12T10:06:40.049Z,12468
2019-03-12T10:07:49.968Z,12364
2019-03-12T10:08:59.890Z,12052
2019-03-12T10:10:09.831Z,11880
2019-03-12T10:11:19.750Z,11752
2019-03-12T10:12:29.664Z,11712
2019-03-12T10:13:39.338Z,11512
2019-03-12T10:14:49.307Z,11448
2019-03-12T10:15:59.225Z,11444
2019-03-12T10:17:09.152Z,11408
2019-03-12T10:18:19.074Z,11440
2019-03-12T10:19:28.993Z,11724
2019-03-12T10:20:38.967Z,11876
2019-03-12T10:21:48.896Z,12060
2019-03-12T10:22:58.815Z,11968
2019-03-12T10:24:08.733Z,11828
2019-03-12T10:25:18.663Z,12072
2019-03-12T10:26:28.595Z,12484
2019-03-12T10:27:38.263Z,12408
2019-03-12T10:28:48.183Z,12200
2019-03-12T10:29:58.126Z,12052
2019-03-12T10:31:08.046Z,12076
2019-03-12T10:32:18.067Z,12048
2019-03-12T10:33:28.062Z,12072
2019-03-12T10:34:37.730Z,12068
2019-03-12T10:35:47.667Z,12212
2019-03-12T10:37:10.766Z,12252
2019-03-12T10:38:24.057Z,11916
2019-03-12T10:39:33.973Z,11760
2019-03-12T10:40:43.892Z,11896
2019-03-12T10:41:53.810Z,11912
2019-03-12T10:43:03.731Z,11920
2019-03-12T10:44:13.695Z,11976
2019-03-12T10:45:23.702Z,11908
2019-03-12T10:46:33.632Z,11876
2019-03-12T10:47:43.309Z,12040
2019-03-12T10:48:53.244Z,12416
2019-03-12T10:50:03.160Z,12548
2019-03-12T10:51:15.587Z,12960
2019-03-12T10:52:25.505Z,13180
2019-03-12T10:53:35.434Z,13304
2019-03-12T10:54:45.360Z,13448
2019-03-12T10:55:55.298Z,13660
2019-03-12T10:57:05.218Z,13888
2019-03-12T10:58:15.162Z,14012
2019-03-12T10:59:25.081Z,14052
2019-03-12T11:00:35.104Z,13940
2019-03-12T11:01:45.040Z,13876
2019-03-12T11:02:54.961Z,13812
2019-03-12T11:04:04.879Z,13776
2019-03-12T11:05:14.795Z,13768
2019-03-12T11:06:24.855Z,13828
2019-03-12T11:07:34.778Z,13828
2019-03-12T11:08:44.457Z,13912
2019-03-12T11:09:54.466Z,14116
2019-03-12T11:11:04.389Z,14436
2019-03-12T11:12:14.364Z,14884
2019-03-12T11:13:24.297Z,15280
2019-03-12T11:14:34.216Z,15420
2019-03-12T11:15:44.150Z,15364
2019-03-12T11:16:53.847Z,15412
2019-03-12T11:18:03.880Z,15408
2019-03-12T11:19:13.798Z,15384
2019-03-12T11:20:23.728Z,15272
2019-03-12T11:21:33.649Z,15136
2019-03-12T11:22:43.564Z,15120
2019-03-12T11:23:53.493Z,15196
2019-03-12T11:25:03.413Z,15204
2019-03-12T11:26:13.329Z,15228
2019-03-12T11:27:23.003Z,15384
2019-03-12T11:28:34.172Z,15488
2019-03-12T11:29:44.113Z,15328
2019-03-12T11:30:54.036Z,15136
2019-03-12T11:32:03.958Z,14852
2019-03-12T11:33:14.046Z,14592
2019-03-12T11:34:24.018Z,14404
2019-03-12T11:35:43.983Z,14136
2019-03-12T11:36:54.118Z,13812
2019-03-12T11:38:04.154Z,13528
2019-03-12T11:39:14.601Z,13240
2019-03-12T11:40:24.644Z,12972
2019-03-12T11:41:40.097Z,12644
2019-03-12T11:42:49.927Z,12324
2019-03-12T11:43:59.688Z,12036
2019-03-12T11:45:34.765Z,11876
2019-03-12T11:46:51.937Z,11812
2019-03-12T11:48:02.601Z,11656
2019-03-12T11:49:12.550Z,11508
2019-03-12T11:50:23.116Z,11316
2019-03-12T11:51:33.133Z,11060
2019-03-12T11:52:51.812Z,10840
2019-03-12T11:54:07.021Z,10664
2019-03-12T11:55:17.607Z,10516
2019-03-12T11:56:27.724Z,10436
2019-03-12T11:57:37.891Z,10436
2019-03-12T11:58:47.951Z,10416
2019-03-12T11:59:57.969Z,10404
2019-03-12T12:01:09.078Z,10488
2019-03-12T12:02:19.064Z,10608
2019-03-12T12:03:29.131Z,10848
2019-03-12T12:04:39.049Z,11164
2019-03-12T12:05:48.986Z,11512
2019-03-12T12:06:58.913Z,11776
2019-03-12T12:08:08.929Z,11912
2019-03-12T12:09:18.668Z,12024
2019-03-12T12:10:28.765Z,12256
2019-03-12T12:11:38.685Z,12656
2019-03-12T12:12:48.604Z,13156
2019-03-12T12:13:58.525Z,13632
2019-03-12T12:15:08.594Z,14024
2019-03-12T12:16:18.280Z,14364
2019-03-12T12:17:28.202Z,14744
2019-03-12T12:18:38.124Z,15180
2019-03-12T12:19:48.049Z,15552
2019-03-12T12:20:58.173Z,15832
2019-03-12T12:22:08.093Z,16100
2019-03-12T12:23:18.010Z,16292
2019-03-12T12:24:31.353Z,16332
2019-03-12T12:25:41.272Z,16352
2019-03-12T12:26:51.237Z,16644
2019-03-12T12:28:01.162Z,17632
2019-03-12T12:29:11.077Z,18592
2019-03-12T12:30:21.015Z,19104
2019-03-12T12:31:30.686Z,18816
2019-03-12T12:32:40.704Z,18368
2019-03-12T12:33:50.638Z,17632
2019-03-12T12:35:00.567Z,17216
2019-03-12T12:36:10.522Z,16712
2019-03-12T12:37:21.175Z,16528
2019-03-12T12:38:30.976Z,16516
2019-03-12T12:39:40.891Z,16720
2019-03-12T12:40:50.832Z,16788
2019-03-12T12:42:00.755Z,16280
2019-03-12T12:43:10.690Z,15772
2019-03-12T12:44:20.667Z,15364
2019-03-12T12:45:30.593Z,14960
2019-03-12T12:46:40.518Z,14572
2019-03-12T12:47:50.458Z,14304
2019-03-12T12:49:00.733Z,14116
2019-03-12T12:50:10.821Z,13968
2019-03-12T12:51:20.748Z,13928
2019-03-12T12:52:30.691Z,13960
2019-03-12T12:53:40.606Z,13888
2019-03-12T12:54:50.530Z,13540
2019-03-12T12:56:00.569Z,12980
2019-03-12T12:57:10.494Z,12332
2019-03-12T12:58:20.420Z,11776
2019-03-12T12:59:30.354Z,11404
2019-03-12T13:00:43.048Z,11248
2019-03-12T13:01:53.072Z,11276
2019-03-12T13:03:02.991Z,11320
2019-03-12T13:04:12.933Z,11380
2019-03-12T13:05:22.858Z,11320
2019-03-12T13:06:32.883Z,11120
2019-03-12T13:07:42.857Z,10812
2019-03-12T13:08:52.779Z,10436
2019-03-12T13:10:02.772Z,10116
2019-03-12T13:11:12.698Z,9768
2019-03-12T13:12:22.702Z,9392
2019-03-12T13:13:32.930Z,8972
2019-03-12T13:14:48.812Z,8568
2019-03-12T13:15:58.752Z,8276
2019-03-12T13:17:08.421Z,8008
2019-03-12T13:18:21.380Z,7788
2019-03-12T13:19:31.443Z,7664
2019-03-12T13:20:41.440Z,7600
2019-03-12T13:21:51.373Z,7572
2019-03-12T13:23:01.300Z,7644
2019-03-12T13:24:11.219Z,7760
2019-03-12T13:25:21.204Z,7880
2019-03-12T13:26:31.120Z,8072
2019-03-12T13:27:49.714Z,8344
2019-03-12T13:28:59.643Z,8588
2019-03-12T13:30:09.559Z,8812
2019-03-12T13:31:19.342Z,9068
2019-03-12T13:32:29.883Z,9292
2019-03-12T13:33:40.008Z,9424
2019-03-12T13:34:50.025Z,9496
2019-03-12T13:35:59.952Z,9544
2019-03-12T13:37:09.920Z,9568
2019-03-12T13:38:19.907Z,9572
2019-03-12T13:39:30.456Z,9524
2019-03-12T13:40:40.797Z,9392
2019-03-12T13:41:50.866Z,9188
2019-03-12T13:43:01.270Z,8956
2019-03-12T13:44:11.309Z,8736
2019-03-12T13:45:21.570Z,8624
2019-03-12T13:46:32.007Z,8620
2019-03-12T13:47:42.007Z,8692
2019-03-12T13:48:52.127Z,8796
2019-03-12T13:50:02.613Z,8864
2019-03-12T13:51:12.797Z,8884
2019-03-12T13:52:22.796Z,8968
2019-03-12T13:53:32.890Z,8980
2019-03-12T13:54:42.978Z,8848
2019-03-12T13:55:52.979Z,8664
2019-03-12T13:57:02.950Z,8596
2019-03-12T13:58:12.994Z,8548
2019-03-12T13:59:22.945Z,8448
2019-03-12T14:00:38.348Z,8384
2019-03-12T14:01:48.278Z,8320
2019-03-12T14:02:58.228Z,8228
2019-03-12T14:04:17.687Z,8164
2019-03-12T14:05:27.628Z,8152
2019-03-12T14:06:40.206Z,8152
2019-03-12T14:07:50.136Z,8220
2019-03-12T14:08:59.807Z,8284
2019-03-12T14:10:09.734Z,8268
2019-03-12T14:11:19.819Z,8216
2019-03-12T14:12:29.752Z,8120
2019-03-12T14:13:39.420Z,7920
2019-03-12T14:14:49.336Z,7644
2019-03-12T14:15:59.255Z,7380
2019-03-12T14:17:10.965Z,7092
2019-03-12T14:18:20.899Z,6788
2019-03-12T14:19:30.824Z,6484
2019-03-12T14:20:40.509Z,6204
2019-03-12T14:21:50.432Z,5960
2019-03-12T14:23:00.416Z,5772
2019-03-12T14:24:10.358Z,5648
2019-03-12T14:25:20.286Z,5500
2019-03-12T14:26:30.015Z,5352
2019-03-12T14:27:39.935Z,5220
2019-03-12T14:28:52.368Z,5092
2019-03-12T14:30:02.855Z,4916
2019-03-12T14:31:12.793Z,4760
2019-03-12T14:32:22.735Z,4652
2019-03-12T14:33:32.658Z,4572
2019-03-12T14:34:42.677Z,4492
2019-03-12T14:35:58.944Z,4384
2019-03-12T14:37:08.872Z,4244
2019-03-12T14:38:18.544Z,4084
2019-03-12T14:39:28.474Z,3956
2019-03-12T14:40:38.543Z,3796
2019-03-12T14:41:48.469Z,3552
2019-03-12T14:42:58.396Z,3320
2019-03-12T14:44:08.314Z,3204
2019-03-12T14:45:18.236Z,3100
2019-03-12T14:46:28.257Z,3024
2019-03-12T14:47:38.173Z,2996
2019-03-12T14:48:48.105Z,2960
2019-03-12T14:49:58.032Z,2908
2019-03-12T14:51:07.716Z,2828
2019-03-12T14:52:17.745Z,2836
2019-03-12T14:53:29.335Z,2840
2019-03-12T14:54:39.256Z,2828
2019-03-12T14:55:49.175Z,2872
2019-03-12T14:56:59.100Z,2880
2019-03-12T14:58:09.069Z,2940
2019-03-12T14:59:18.989Z,3020
2019-03-12T15:00:28.904Z,3076
2019-03-12T15:01:38.592Z,3116
2019-03-12T15:02:48.510Z,3164
2019-03-12T15:03:58.490Z,3192
2019-03-12T15:05:08.409Z,3148
2019-03-12T15:06:18.373Z,3020
2019-03-12T15:07:28.315Z,2840
2019-03-12T15:08:38.241Z,2700
2019-03-12T15:09:48.312Z,2748
2019-03-12T15:10:58.263Z,2944
2019-03-12T15:12:11.350Z,3108
2019-03-12T15:13:21.827Z,3212
2019-03-12T15:14:31.744Z,3296
2019-03-12T15:15:41.781Z,3400
2019-03-12T15:16:51.709Z,3456
2019-03-12T15:18:01.628Z,3624
2019-03-12T15:19:11.549Z,3724
2019-03-12T15:20:21.487Z,3816
2019-03-12T15:21:31.506Z,3912
2019-03-12T15:22:41.429Z,3916
2019-03-12T15:23:51.341Z,3776
2019-03-12T15:25:01.260Z,3620
2019-03-12T15:26:11.183Z,3392
2019-03-12T15:27:21.310Z,3200
2019-03-12T15:28:31.229Z,3064
2019-03-12T15:29:41.147Z,2872
2019-03-12T15:30:51.067Z,2748
2019-03-12T15:32:10.821Z,2668
2019-03-12T15:33:20.791Z,2504
2019-03-12T15:34:30.740Z,2316
2019-03-12T15:35:40.657Z,2216
2019-03-12T15:36:52.613Z,2096
2019-03-12T15:38:02.527Z,1992
2019-03-12T15:39:12.652Z,1940
2019-03-12T15:40:22.578Z,1968
2019-03-12T15:41:32.504Z,1984
2019-03-12T15:42:42.419Z,1896
2019-03-12T15:43:52.338Z,1784
2019-03-12T15:45:02.349Z,1668
2019-03-12T15:46:12.271Z,1576
2019-03-12T15:47:22.187Z,1580
2019-03-12T15:48:32.103Z,1580
2019-03-12T15:49:47.843Z,1488
2019-03-12T15:50:57.858Z,1440
2019-03-12T15:52:08.307Z,1340
2019-03-12T15:53:18.223Z,1280
2019-03-12T15:54:28.140Z,1296
2019-03-12T15:55:37.819Z,1392
2019-03-12T15:56:47.851Z,1460
2019-03-12T15:57:57.803Z,1520
2019-03-12T15:59:07.744Z,1560
2019-03-12T16:00:17.663Z,1520